Port Rowan, Canada
Current Conditions -  °F | °C
As of 9:51 PM on Monday 22 Dec 2014 (Local Time) from KERI Reporting Station
Clear Clear  
Wind Chill: 27°   Ceiling: Unl
Heat Index: 37°   Visibility: 10mi
Dew Point: 27°   Wind: 18mph
Humidity: 67%   Direction: 150°SSE
Pressure: 29.96"   Gusts: NA
Location:  42.63°N, 80.45°W
Report Text: KERI 230251Z 15016KT 10SM CLR 03/M03 A2996 RMK AO2 PK WND 14027/0223 SLP151 T00281028 56010
Loading
Personal Weather Stations






























Interactive Weather Map New forecast layout! Learn more

10-Day Weather Forecast

Advertisements
Track Severe Weather on mobile